sensor_id;sensor_type;location;lat;lon;timestamp;P1;durP1;ratioP1;P2;durP2;ratioP2
52380;SDS011;38310;52.796;6.942;2023-07-20T00:01:05;2.97;;;1.85;;
52380;SDS011;38310;52.796;6.942;2023-07-20T00:03:31;3.00;;;1.88;;
52380;SDS011;38310;52.796;6.942;2023-07-20T00:05:56;2.90;;;1.88;;
52380;SDS011;38310;52.796;6.942;2023-07-20T00:08:22;2.97;;;1.75;;
52380;SDS011;38310;52.796;6.942;2023-07-20T00:10:48;1.77;;;1.60;;
52380;SDS011;38310;52.796;6.942;2023-07-20T00:13:13;3.42;;;1.90;;
52380;SDS011;38310;52.796;6.942;2023-07-20T00:15:41;2.95;;;1.73;;
52380;SDS011;38310;52.796;6.942;2023-07-20T00:18:07;2.13;;;1.55;;
52380;SDS011;38310;52.796;6.942;2023-07-20T00:20:33;3.30;;;1.92;;
52380;SDS011;38310;52.796;6.942;2023-07-20T00:22:58;3.35;;;1.95;;
52380;SDS011;38310;52.796;6.942;2023-07-20T00:25:24;3.55;;;1.70;;
52380;SDS011;38310;52.796;6.942;2023-07-20T00:27:50;2.53;;;1.70;;
52380;SDS011;38310;52.796;6.942;2023-07-20T00:30:16;3.00;;;1.98;;
52380;SDS011;38310;52.796;6.942;2023-07-20T00:32:43;2.45;;;1.88;;
52380;SDS011;38310;52.796;6.942;2023-07-20T00:35:09;3.33;;;1.80;;
52380;SDS011;38310;52.796;6.942;2023-07-20T00:37:36;3.88;;;1.90;;
52380;SDS011;38310;52.796;6.942;2023-07-20T00:40:02;2.75;;;1.80;;
52380;SDS011;38310;52.796;6.942;2023-07-20T00:42:35;3.10;;;2.28;;
52380;SDS011;38310;52.796;6.942;2023-07-20T00:45:01;2.47;;;1.90;;
52380;SDS011;38310;52.796;6.942;2023-07-20T00:47:27;2.85;;;2.10;;
52380;SDS011;38310;52.796;6.942;2023-07-20T00:49:53;2.72;;;2.13;;
52380;SDS011;38310;52.796;6.942;2023-07-20T00:52:20;3.03;;;2.28;;
52380;SDS011;38310;52.796;6.942;2023-07-20T00:54:48;4.18;;;2.20;;
52380;SDS011;38310;52.796;6.942;2023-07-20T00:57:14;3.60;;;2.47;;
52380;SDS011;38310;52.796;6.942;2023-07-20T00:59:41;3.55;;;2.50;;
52380;SDS011;38310;52.796;6.942;2023-07-20T01:02:07;3.03;;;2.35;;
52380;SDS011;38310;52.796;6.942;2023-07-20T01:04:33;3.35;;;2.17;;
52380;SDS011;38310;52.796;6.942;2023-07-20T01:12:48;2.40;;;2.15;;
52380;SDS011;38310;52.796;6.942;2023-07-20T01:15:17;3.50;;;2.15;;
52380;SDS011;38310;52.796;6.942;2023-07-20T01:17:43;1.98;;;1.70;;
52380;SDS011;38310;52.796;6.942;2023-07-20T01:20:10;3.22;;;2.08;;
52380;SDS011;38310;52.796;6.942;2023-07-20T01:27:41;2.75;;;2.10;;
52380;SDS011;38310;52.796;6.942;2023-07-20T01:33:17;2.40;;;2.10;;
52380;SDS011;38310;52.796;6.942;2023-07-20T01:35:46;2.25;;;1.67;;
52380;SDS011;38310;52.796;6.942;2023-07-20T01:38:18;2.38;;;1.98;;
52380;SDS011;38310;52.796;6.942;2023-07-20T01:40:45;4.28;;;2.20;;
52380;SDS011;38310;52.796;6.942;2023-07-20T01:43:11;2.90;;;1.70;;
52380;SDS011;38310;52.796;6.942;2023-07-20T01:45:37;1.98;;;1.67;;
52380;SDS011;38310;52.796;6.942;2023-07-20T01:48:04;3.10;;;1.80;;
52380;SDS011;38310;52.796;6.942;2023-07-20T01:50:30;2.63;;;1.90;;
52380;SDS011;38310;52.796;6.942;2023-07-20T01:52:56;1.85;;;1.55;;
52380;SDS011;38310;52.796;6.942;2023-07-20T01:55:22;2.70;;;1.80;;
52380;SDS011;38310;52.796;6.942;2023-07-20T01:57:47;2.33;;;1.75;;
52380;SDS011;38310;52.796;6.942;2023-07-20T02:00:13;2.58;;;1.90;;
52380;SDS011;38310;52.796;6.942;2023-07-20T02:02:39;3.15;;;2.03;;
52380;SDS011;38310;52.796;6.942;2023-07-20T02:05:06;3.22;;;2.00;;
52380;SDS011;38310;52.796;6.942;2023-07-20T02:07:32;2.13;;;1.80;;
52380;SDS011;38310;52.796;6.942;2023-07-20T02:09:58;3.53;;;2.15;;
52380;SDS011;38310;52.796;6.942;2023-07-20T02:12:24;2.35;;;1.90;;
52380;SDS011;38310;52.796;6.942;2023-07-20T02:14:50;2.65;;;2.10;;
52380;SDS011;38310;52.796;6.942;2023-07-20T02:17:16;4.35;;;2.47;;
52380;SDS011;38310;52.796;6.942;2023-07-20T02:19:42;4.43;;;2.17;;
52380;SDS011;38310;52.796;6.942;2023-07-20T02:22:07;4.25;;;2.80;;
52380;SDS011;38310;52.796;6.942;2023-07-20T02:24:33;3.78;;;2.80;;
52380;SDS011;38310;52.796;6.942;2023-07-20T02:26:59;2.70;;;2.30;;
52380;SDS011;38310;52.796;6.942;2023-07-20T02:29:25;2.55;;;2.33;;
52380;SDS011;38310;52.796;6.942;2023-07-20T02:31:50;4.35;;;3.08;;
52380;SDS011;38310;52.796;6.942;2023-07-20T02:34:16;2.95;;;2.28;;
52380;SDS011;38310;52.796;6.942;2023-07-20T02:36:42;3.72;;;2.83;;
52380;SDS011;38310;52.796;6.942;2023-07-20T02:39:08;3.95;;;3.25;;
52380;SDS011;38310;52.796;6.942;2023-07-20T02:41:34;3.90;;;2.70;;
52380;SDS011;38310;52.796;6.942;2023-07-20T02:43:59;5.13;;;3.20;;
52380;SDS011;38310;52.796;6.942;2023-07-20T02:46:26;4.97;;;3.40;;
52380;SDS011;38310;52.796;6.942;2023-07-20T02:48:52;4.88;;;3.50;;
52380;SDS011;38310;52.796;6.942;2023-07-20T02:51:18;4.72;;;3.85;;
52380;SDS011;38310;52.796;6.942;2023-07-20T02:53:43;5.30;;;3.80;;
52380;SDS011;38310;52.796;6.942;2023-07-20T02:56:09;4.63;;;3.67;;
52380;SDS011;38310;52.796;6.942;2023-07-20T02:58:35;6.10;;;4.28;;
52380;SDS011;38310;52.796;6.942;2023-07-20T03:01:03;6.82;;;5.03;;
52380;SDS011;38310;52.796;6.942;2023-07-20T03:03:29;6.88;;;5.13;;
52380;SDS011;38310;52.796;6.942;2023-07-20T03:05:55;7.05;;;5.03;;
52380;SDS011;38310;52.796;6.942;2023-07-20T03:08:24;6.50;;;5.15;;
52380;SDS011;38310;52.796;6.942;2023-07-20T03:10:50;7.93;;;5.80;;
52380;SDS011;38310;52.796;6.942;2023-07-20T03:13:15;7.43;;;5.10;;
52380;SDS011;38310;52.796;6.942;2023-07-20T03:15:41;6.47;;;5.75;;
52380;SDS011;38310;52.796;6.942;2023-07-20T03:18:07;7.97;;;6.00;;
52380;SDS011;38310;52.796;6.942;2023-07-20T03:20:32;6.85;;;6.15;;
52380;SDS011;38310;52.796;6.942;2023-07-20T03:23:00;6.80;;;6.10;;
52380;SDS011;38310;52.796;6.942;2023-07-20T03:25:25;7.22;;;5.88;;
52380;SDS011;38310;52.796;6.942;2023-07-20T03:27:51;6.78;;;6.07;;
52380;SDS011;38310;52.796;6.942;2023-07-20T03:30:17;8.07;;;6.57;;
52380;SDS011;38310;52.796;6.942;2023-07-20T03:32:43;7.72;;;6.32;;
52380;SDS011;38310;52.796;6.942;2023-07-20T03:35:08;7.90;;;6.70;;
52380;SDS011;38310;52.796;6.942;2023-07-20T03:37:34;9.20;;;7.35;;
52380;SDS011;38310;52.796;6.942;2023-07-20T03:40:02;8.32;;;6.43;;
52380;SDS011;38310;52.796;6.942;2023-07-20T03:42:28;6.97;;;5.90;;
52380;SDS011;38310;52.796;6.942;2023-07-20T03:44:53;8.63;;;6.88;;
52380;SDS011;38310;52.796;6.942;2023-07-20T03:47:19;7.18;;;5.95;;
52380;SDS011;38310;52.796;6.942;2023-07-20T03:49:45;6.63;;;5.90;;
52380;SDS011;38310;52.796;6.942;2023-07-20T03:52:10;7.60;;;6.13;;
52380;SDS011;38310;52.796;6.942;2023-07-20T03:54:36;7.45;;;6.65;;
52380;SDS011;38310;52.796;6.942;2023-07-20T03:57:02;7.15;;;6.13;;
52380;SDS011;38310;52.796;6.942;2023-07-20T03:59:28;8.43;;;7.10;;
52380;SDS011;38310;52.796;6.942;2023-07-20T04:01:53;7.65;;;6.50;;
52380;SDS011;38310;52.796;6.942;2023-07-20T04:04:19;8.77;;;7.82;;
52380;SDS011;38310;52.796;6.942;2023-07-20T04:06:45;8.85;;;6.95;;
52380;SDS011;38310;52.796;6.942;2023-07-20T04:09:11;7.75;;;6.22;;
52380;SDS011;38310;52.796;6.942;2023-07-20T04:11:37;8.35;;;6.45;;
52380;SDS011;38310;52.796;6.942;2023-07-20T04:14:03;7.40;;;6.70;;
52380;SDS011;38310;52.796;6.942;2023-07-20T04:16:29;7.15;;;6.13;;
52380;SDS011;38310;52.796;6.942;2023-07-20T04:18:55;6.07;;;5.47;;
52380;SDS011;38310;52.796;6.942;2023-07-20T04:21:21;8.25;;;6.35;;
52380;SDS011;38310;52.796;6.942;2023-07-20T04:23:47;7.60;;;5.72;;
52380;SDS011;38310;52.796;6.942;2023-07-20T04:26:13;6.70;;;5.53;;
52380;SDS011;38310;52.796;6.942;2023-07-20T04:28:40;6.95;;;5.55;;
52380;SDS011;38310;52.796;6.942;2023-07-20T04:31:14;6.80;;;5.95;;
52380;SDS011;38310;52.796;6.942;2023-07-20T04:33:40;6.18;;;5.45;;
52380;SDS011;38310;52.796;6.942;2023-07-20T04:36:06;6.78;;;5.53;;
52380;SDS011;38310;52.796;6.942;2023-07-20T04:38:33;8.10;;;5.40;;
52380;SDS011;38310;52.796;6.942;2023-07-20T04:40:59;6.43;;;5.45;;
52380;SDS011;38310;52.796;6.942;2023-07-20T04:43:25;5.85;;;4.90;;
52380;SDS011;38310;52.796;6.942;2023-07-20T04:45:51;6.70;;;6.00;;
52380;SDS011;38310;52.796;6.942;2023-07-20T04:48:17;6.43;;;4.68;;
52380;SDS011;38310;52.796;6.942;2023-07-20T04:50:44;6.10;;;4.60;;
52380;SDS011;38310;52.796;6.942;2023-07-20T04:53:11;7.20;;;5.60;;
52380;SDS011;38310;52.796;6.942;2023-07-20T04:55:40;6.70;;;5.15;;
52380;SDS011;38310;52.796;6.942;2023-07-20T04:58:06;6.80;;;4.15;;
52380;SDS011;38310;52.796;6.942;2023-07-20T05:00:33;6.18;;;4.43;;
52380;SDS011;38310;52.796;6.942;2023-07-20T05:02:59;6.90;;;4.20;;
52380;SDS011;38310;52.796;6.942;2023-07-20T05:05:25;5.03;;;3.80;;
52380;SDS011;38310;52.796;6.942;2023-07-20T05:07:50;4.80;;;3.53;;
52380;SDS011;38310;52.796;6.942;2023-07-20T05:10:16;4.93;;;3.90;;
52380;SDS011;38310;52.796;6.942;2023-07-20T05:12:43;5.50;;;4.55;;
52380;SDS011;38310;52.796;6.942;2023-07-20T05:15:09;4.07;;;3.65;;
52380;SDS011;38310;52.796;6.942;2023-07-20T05:17:35;5.45;;;4.15;;
52380;SDS011;38310;52.796;6.942;2023-07-20T05:20:00;4.85;;;3.95;;
52380;SDS011;38310;52.796;6.942;2023-07-20T05:22:26;6.18;;;3.50;;
52380;SDS011;38310;52.796;6.942;2023-07-20T05:24:52;4.55;;;3.58;;
52380;SDS011;38310;52.796;6.942;2023-07-20T05:27:17;4.90;;;3.70;;
52380;SDS011;38310;52.796;6.942;2023-07-20T05:29:44;4.13;;;3.10;;
52380;SDS011;38310;52.796;6.942;2023-07-20T05:32:10;4.43;;;3.30;;
52380;SDS011;38310;52.796;6.942;2023-07-20T05:34:36;4.45;;;3.30;;
52380;SDS011;38310;52.796;6.942;2023-07-20T05:37:02;4.03;;;3.17;;
52380;SDS011;38310;52.796;6.942;2023-07-20T05:39:27;2.95;;;2.38;;
52380;SDS011;38310;52.796;6.942;2023-07-20T05:41:53;3.97;;;2.90;;
52380;SDS011;38310;52.796;6.942;2023-07-20T05:44:19;3.28;;;2.90;;
52380;SDS011;38310;52.796;6.942;2023-07-20T05:46:44;4.88;;;3.15;;
52380;SDS011;38310;52.796;6.942;2023-07-20T05:49:10;6.22;;;3.15;;
52380;SDS011;38310;52.796;6.942;2023-07-20T05:51:36;6.45;;;2.70;;
52380;SDS011;38310;52.796;6.942;2023-07-20T05:54:01;4.75;;;2.55;;
52380;SDS011;38310;52.796;6.942;2023-07-20T05:56:27;2.95;;;2.25;;
52380;SDS011;38310;52.796;6.942;2023-07-20T05:58:53;2.47;;;2.10;;
52380;SDS011;38310;52.796;6.942;2023-07-20T06:01:19;5.15;;;2.65;;
52380;SDS011;38310;52.796;6.942;2023-07-20T06:03:44;3.30;;;1.80;;
52380;SDS011;38310;52.796;6.942;2023-07-20T06:06:10;2.63;;;1.70;;
52380;SDS011;38310;52.796;6.942;2023-07-20T06:08:37;3.72;;;2.00;;
52380;SDS011;38310;52.796;6.942;2023-07-20T06:11:03;2.92;;;1.80;;
52380;SDS011;38310;52.796;6.942;2023-07-20T06:13:29;3.67;;;1.75;;
52380;SDS011;38310;52.796;6.942;2023-07-20T06:15:55;2.50;;;1.83;;
52380;SDS011;38310;52.796;6.942;2023-07-20T06:18:24;2.90;;;1.60;;
52380;SDS011;38310;52.796;6.942;2023-07-20T06:20:50;2.65;;;1.80;;
52380;SDS011;38310;52.796;6.942;2023-07-20T06:23:18;3.28;;;1.50;;
52380;SDS011;38310;52.796;6.942;2023-07-20T06:25:44;2.60;;;1.30;;
52380;SDS011;38310;52.796;6.942;2023-07-20T06:28:11;3.42;;;1.42;;
52380;SDS011;38310;52.796;6.942;2023-07-20T06:30:37;3.28;;;1.65;;
52380;SDS011;38310;52.796;6.942;2023-07-20T06:33:02;3.95;;;1.63;;
52380;SDS011;38310;52.796;6.942;2023-07-20T06:35:28;2.47;;;1.40;;
52380;SDS011;38310;52.796;6.942;2023-07-20T06:37:54;3.92;;;1.50;;
52380;SDS011;38310;52.796;6.942;2023-07-20T06:40:20;2.80;;;1.40;;
52380;SDS011;38310;52.796;6.942;2023-07-20T06:42:46;3.83;;;1.50;;
52380;SDS011;38310;52.796;6.942;2023-07-20T06:45:12;3.35;;;1.35;;
52380;SDS011;38310;52.796;6.942;2023-07-20T06:47:38;2.63;;;1.10;;
52380;SDS011;38310;52.796;6.942;2023-07-20T06:50:07;2.40;;;1.40;;
52380;SDS011;38310;52.796;6.942;2023-07-20T06:52:34;1.58;;;1.10;;
52380;SDS011;38310;52.796;6.942;2023-07-20T06:55:00;2.78;;;1.10;;
52380;SDS011;38310;52.796;6.942;2023-07-20T06:57:25;3.00;;;1.25;;
52380;SDS011;38310;52.796;6.942;2023-07-20T06:59:51;2.63;;;1.15;;
52380;SDS011;38310;52.796;6.942;2023-07-20T07:02:18;2.38;;;1.25;;
52380;SDS011;38310;52.796;6.942;2023-07-20T07:04:44;3.90;;;1.15;;
52380;SDS011;38310;52.796;6.942;2023-07-20T07:07:13;2.55;;;1.20;;
52380;SDS011;38310;52.796;6.942;2023-07-20T07:09:40;2.47;;;1.20;;
52380;SDS011;38310;52.796;6.942;2023-07-20T07:12:06;2.55;;;1.20;;
52380;SDS011;38310;52.796;6.942;2023-07-20T07:14:32;4.65;;;1.35;;
52380;SDS011;38310;52.796;6.942;2023-07-20T07:16:58;1.88;;;1.25;;
52380;SDS011;38310;52.796;6.942;2023-07-20T07:19:24;3.00;;;1.25;;
52380;SDS011;38310;52.796;6.942;2023-07-20T07:21:49;2.20;;;1.02;;
52380;SDS011;38310;52.796;6.942;2023-07-20T07:24:16;2.63;;;1.40;;
52380;SDS011;38310;52.796;6.942;2023-07-20T07:26:42;3.42;;;1.30;;
52380;SDS011;38310;52.796;6.942;2023-07-20T07:29:07;3.10;;;1.40;;
52380;SDS011;38310;52.796;6.942;2023-07-20T07:31:36;2.17;;;1.35;;
52380;SDS011;38310;52.796;6.942;2023-07-20T07:34:03;3.28;;;1.20;;
52380;SDS011;38310;52.796;6.942;2023-07-20T07:36:30;2.70;;;1.20;;
52380;SDS011;38310;52.796;6.942;2023-07-20T07:38:56;3.28;;;1.30;;
52380;SDS011;38310;52.796;6.942;2023-07-20T07:41:22;3.70;;;1.10;;
52380;SDS011;38310;52.796;6.942;2023-07-20T07:43:48;1.77;;;1.10;;
52380;SDS011;38310;52.796;6.942;2023-07-20T07:46:14;4.88;;;1.20;;
52380;SDS011;38310;52.796;6.942;2023-07-20T07:48:42;2.85;;;1.27;;
52380;SDS011;38310;52.796;6.942;2023-07-20T07:51:07;1.77;;;0.95;;
52380;SDS011;38310;52.796;6.942;2023-07-20T07:53:34;4.07;;;1.35;;
52380;SDS011;38310;52.796;6.942;2023-07-20T07:56:02;3.33;;;1.10;;
52380;SDS011;38310;52.796;6.942;2023-07-20T07:58:28;2.00;;;1.00;;
52380;SDS011;38310;52.796;6.942;2023-07-20T08:00:54;2.22;;;1.00;;
52380;SDS011;38310;52.796;6.942;2023-07-20T08:03:20;1.85;;;0.90;;
52380;SDS011;38310;52.796;6.942;2023-07-20T08:05:46;2.80;;;1.13;;
52380;SDS011;38310;52.796;6.942;2023-07-20T08:08:12;3.03;;;1.00;;
52380;SDS011;38310;52.796;6.942;2023-07-20T08:10:38;1.98;;;0.98;;
52380;SDS011;38310;52.796;6.942;2023-07-20T08:13:03;3.72;;;1.13;;
52380;SDS011;38310;52.796;6.942;2023-07-20T08:15:29;2.63;;;1.02;;
52380;SDS011;38310;52.796;6.942;2023-07-20T08:17:55;3.78;;;1.58;;
52380;SDS011;38310;52.796;6.942;2023-07-20T08:20:21;4.28;;;1.20;;
52380;SDS011;38310;52.796;6.942;2023-07-20T08:22:52;2.22;;;1.02;;
52380;SDS011;38310;52.796;6.942;2023-07-20T08:25:19;2.20;;;0.98;;
52380;SDS011;38310;52.796;6.942;2023-07-20T08:27:45;2.03;;;0.90;;
52380;SDS011;38310;52.796;6.942;2023-07-20T08:30:12;2.25;;;0.85;;
52380;SDS011;38310;52.796;6.942;2023-07-20T08:32:38;3.50;;;0.80;;
52380;SDS011;38310;52.796;6.942;2023-07-20T08:35:05;2.17;;;0.88;;
52380;SDS011;38310;52.796;6.942;2023-07-20T08:37:31;3.13;;;1.08;;
52380;SDS011;38310;52.796;6.942;2023-07-20T08:39:57;2.25;;;0.80;;
52380;SDS011;38310;52.796;6.942;2023-07-20T08:42:22;3.60;;;0.80;;
52380;SDS011;38310;52.796;6.942;2023-07-20T08:44:48;2.20;;;0.70;;
52380;SDS011;38310;52.796;6.942;2023-07-20T08:47:17;2.15;;;0.70;;
52380;SDS011;38310;52.796;6.942;2023-07-20T08:49:47;1.50;;;0.70;;
52380;SDS011;38310;52.796;6.942;2023-07-20T08:52:13;2.35;;;1.00;;
52380;SDS011;38310;52.796;6.942;2023-07-20T08:54:40;2.03;;;1.05;;
52380;SDS011;38310;52.796;6.942;2023-07-20T08:57:05;1.38;;;0.60;;
52380;SDS011;38310;52.796;6.942;2023-07-20T08:59:32;2.38;;;0.70;;
52380;SDS011;38310;52.796;6.942;2023-07-20T09:02:02;2.13;;;0.88;;
52380;SDS011;38310;52.796;6.942;2023-07-20T09:04:29;3.08;;;0.90;;
52380;SDS011;38310;52.796;6.942;2023-07-20T09:06:55;2.88;;;0.90;;
52380;SDS011;38310;52.796;6.942;2023-07-20T09:09:22;1.80;;;0.70;;
52380;SDS011;38310;52.796;6.942;2023-07-20T09:11:49;1.33;;;0.68;;
52380;SDS011;38310;52.796;6.942;2023-07-20T09:14:15;1.42;;;0.70;;
52380;SDS011;38310;52.796;6.942;2023-07-20T09:16:48;3.00;;;0.88;;
52380;SDS011;38310;52.796;6.942;2023-07-20T09:19:16;1.92;;;0.80;;
52380;SDS011;38310;52.796;6.942;2023-07-20T09:21:45;1.63;;;0.80;;
52380;SDS011;38310;52.796;6.942;2023-07-20T09:24:13;1.42;;;0.70;;
52380;SDS011;38310;52.796;6.942;2023-07-20T09:26:43;2.17;;;0.70;;
52380;SDS011;38310;52.796;6.942;2023-07-20T09:29:13;1.27;;;0.70;;
52380;SDS011;38310;52.796;6.942;2023-07-20T09:31:39;1.08;;;0.60;;
52380;SDS011;38310;52.796;6.942;2023-07-20T09:34:06;1.33;;;0.70;;
52380;SDS011;38310;52.796;6.942;2023-07-20T09:36:35;1.42;;;0.63;;
52380;SDS011;38310;52.796;6.942;2023-07-20T09:39:03;1.75;;;0.80;;
52380;SDS011;38310;52.796;6.942;2023-07-20T09:41:29;1.08;;;0.60;;
52380;SDS011;38310;52.796;6.942;2023-07-20T09:44:04;2.85;;;0.68;;
52380;SDS011;38310;52.796;6.942;2023-07-20T09:46:41;1.55;;;0.60;;
52380;SDS011;38310;52.796;6.942;2023-07-20T09:49:11;1.60;;;0.60;;
52380;SDS011;38310;52.796;6.942;2023-07-20T09:51:37;1.20;;;0.70;;
52380;SDS011;38310;52.796;6.942;2023-07-20T09:54:03;2.00;;;0.88;;
52380;SDS011;38310;52.796;6.942;2023-07-20T09:56:29;0.95;;;0.45;;
52380;SDS011;38310;52.796;6.942;2023-07-20T09:58:56;1.98;;;0.68;;
52380;SDS011;38310;52.796;6.942;2023-07-20T10:01:22;1.00;;;0.60;;
52380;SDS011;38310;52.796;6.942;2023-07-20T10:03:48;1.05;;;0.60;;
52380;SDS011;38310;52.796;6.942;2023-07-20T10:06:20;1.40;;;0.60;;
52380;SDS011;38310;52.796;6.942;2023-07-20T10:08:49;1.65;;;0.60;;
52380;SDS011;38310;52.796;6.942;2023-07-20T10:11:18;2.58;;;0.70;;
52380;SDS011;38310;52.796;6.942;2023-07-20T10:13:46;2.45;;;0.70;;
52380;SDS011;38310;52.796;6.942;2023-07-20T10:16:25;1.95;;;0.60;;
52380;SDS011;38310;52.796;6.942;2023-07-20T10:19:03;1.98;;;0.63;;
52380;SDS011;38310;52.796;6.942;2023-07-20T10:21:37;1.90;;;0.70;;
52380;SDS011;38310;52.796;6.942;2023-07-20T10:24:07;0.82;;;0.50;;
52380;SDS011;38310;52.796;6.942;2023-07-20T10:26:34;2.45;;;0.65;;
52380;SDS011;38310;52.796;6.942;2023-07-20T10:29:00;2.97;;;0.65;;
52380;SDS011;38310;52.796;6.942;2023-07-20T10:31:26;2.08;;;0.60;;
52380;SDS011;38310;52.796;6.942;2023-07-20T10:33:54;2.40;;;0.70;;
52380;SDS011;38310;52.796;6.942;2023-07-20T10:36:27;2.33;;;0.90;;
52380;SDS011;38310;52.796;6.942;2023-07-20T10:38:53;1.38;;;0.63;;
52380;SDS011;38310;52.796;6.942;2023-07-20T10:41:21;1.13;;;0.70;;
52380;SDS011;38310;52.796;6.942;2023-07-20T10:43:55;2.13;;;0.60;;
52380;SDS011;38310;52.796;6.942;2023-07-20T10:49:09;3.20;;;0.80;;
52380;SDS011;38310;52.796;6.942;2023-07-20T10:51:40;2.55;;;0.80;;
52380;SDS011;38310;52.796;6.942;2023-07-20T10:54:33;1.88;;;0.80;;
52380;SDS011;38310;52.796;6.942;2023-07-20T10:56:55;2.45;;;0.60;;
52380;SDS011;38310;52.796;6.942;2023-07-20T11:01:57;1.08;;;0.70;;
52380;SDS011;38310;52.796;6.942;2023-07-20T11:04:47;2.67;;;0.93;;
52380;SDS011;38310;52.796;6.942;2023-07-20T11:07:17;1.90;;;0.98;;
52380;SDS011;38310;52.796;6.942;2023-07-20T11:10:15;1.73;;;0.90;;
52380;SDS011;38310;52.796;6.942;2023-07-20T11:12:41;1.55;;;0.63;;
52380;SDS011;38310;52.796;6.942;2023-07-20T11:15:27;1.77;;;0.80;;
52380;SDS011;38310;52.796;6.942;2023-07-20T11:18:26;6.82;;;1.13;;
52380;SDS011;38310;52.796;6.942;2023-07-20T11:20:52;2.45;;;0.85;;
52380;SDS011;38310;52.796;6.942;2023-07-20T11:23:21;1.58;;;0.70;;
52380;SDS011;38310;52.796;6.942;2023-07-20T11:25:48;2.45;;;1.00;;
52380;SDS011;38310;52.796;6.942;2023-07-20T11:28:14;1.75;;;0.90;;
52380;SDS011;38310;52.796;6.942;2023-07-20T11:30:40;1.55;;;0.90;;
52380;SDS011;38310;52.796;6.942;2023-07-20T11:33:10;2.63;;;0.93;;
52380;SDS011;38310;52.796;6.942;2023-07-20T11:35:36;2.55;;;0.90;;
52380;SDS011;38310;52.796;6.942;2023-07-20T11:38:15;4.30;;;1.05;;
52380;SDS011;38310;52.796;6.942;2023-07-20T11:40:45;1.83;;;0.80;;
52380;SDS011;38310;52.796;6.942;2023-07-20T11:43:14;2.72;;;0.95;;
52380;SDS011;38310;52.796;6.942;2023-07-20T11:45:40;2.15;;;0.93;;
52380;SDS011;38310;52.796;6.942;2023-07-20T11:48:06;2.95;;;1.00;;
52380;SDS011;38310;52.796;6.942;2023-07-20T11:50:32;2.10;;;0.90;;
52380;SDS011;38310;52.796;6.942;2023-07-20T11:53:04;4.27;;;1.00;;
52380;SDS011;38310;52.796;6.942;2023-07-20T11:55:30;1.42;;;0.75;;
52380;SDS011;38310;52.796;6.942;2023-07-20T11:58:06;2.47;;;0.90;;
52380;SDS011;38310;52.796;6.942;2023-07-20T12:00:33;2.60;;;0.73;;
52380;SDS011;38310;52.796;6.942;2023-07-20T12:03:00;1.45;;;0.90;;
52380;SDS011;38310;52.796;6.942;2023-07-20T12:05:26;1.75;;;0.90;;
52380;SDS011;38310;52.796;6.942;2023-07-20T12:07:52;2.83;;;1.10;;
52380;SDS011;38310;52.796;6.942;2023-07-20T12:10:26;1.95;;;0.82;;
52380;SDS011;38310;52.796;6.942;2023-07-20T12:12:53;2.90;;;1.25;;
52380;SDS011;38310;52.796;6.942;2023-07-20T12:15:23;2.78;;;1.30;;
52380;SDS011;38310;52.796;6.942;2023-07-20T12:17:59;2.03;;;0.70;;
52380;SDS011;38310;52.796;6.942;2023-07-20T12:20:32;1.65;;;0.90;;
52380;SDS011;38310;52.796;6.942;2023-07-20T12:23:02;1.38;;;0.68;;
52380;SDS011;38310;52.796;6.942;2023-07-20T12:25:45;1.70;;;0.80;;
52380;SDS011;38310;52.796;6.942;2023-07-20T12:28:12;2.78;;;1.00;;
52380;SDS011;38310;52.796;6.942;2023-07-20T12:30:42;2.08;;;1.15;;
52380;SDS011;38310;52.796;6.942;2023-07-20T12:33:09;1.63;;;1.08;;
52380;SDS011;38310;52.796;6.942;2023-07-20T12:35:36;3.10;;;1.10;;
52380;SDS011;38310;52.796;6.942;2023-07-20T12:38:02;2.00;;;0.90;;
52380;SDS011;38310;52.796;6.942;2023-07-20T12:40:28;1.80;;;0.82;;
52380;SDS011;38310;52.796;6.942;2023-07-20T12:42:54;1.88;;;1.17;;
52380;SDS011;38310;52.796;6.942;2023-07-20T12:45:20;2.42;;;1.25;;
52380;SDS011;38310;52.796;6.942;2023-07-20T12:47:47;2.03;;;1.30;;
52380;SDS011;38310;52.796;6.942;2023-07-20T12:50:13;2.38;;;1.20;;
52380;SDS011;38310;52.796;6.942;2023-07-20T12:52:39;2.38;;;1.15;;
52380;SDS011;38310;52.796;6.942;2023-07-20T12:55:06;2.38;;;1.27;;
52380;SDS011;38310;52.796;6.942;2023-07-20T12:57:33;2.90;;;1.20;;
52380;SDS011;38310;52.796;6.942;2023-07-20T13:00:00;2.13;;;1.40;;
52380;SDS011;38310;52.796;6.942;2023-07-20T13:02:28;3.80;;;1.27;;
52380;SDS011;38310;52.796;6.942;2023-07-20T13:04:55;1.30;;;0.80;;
52380;SDS011;38310;52.796;6.942;2023-07-20T13:07:28;1.65;;;0.75;;
52380;SDS011;38310;52.796;6.942;2023-07-20T13:10:02;2.78;;;1.05;;
52380;SDS011;38310;52.796;6.942;2023-07-20T13:12:29;1.83;;;0.90;;
52380;SDS011;38310;52.796;6.942;2023-07-20T13:14:56;4.30;;;1.25;;
52380;SDS011;38310;52.796;6.942;2023-07-20T13:17:26;2.10;;;0.90;;
52380;SDS011;38310;52.796;6.942;2023-07-20T13:19:52;3.33;;;0.70;;
52380;SDS011;38310;52.796;6.942;2023-07-20T13:22:18;4.32;;;1.20;;
52380;SDS011;38310;52.796;6.942;2023-07-20T13:24:45;4.35;;;1.00;;
52380;SDS011;38310;52.796;6.942;2023-07-20T13:27:14;2.03;;;1.17;;
52380;SDS011;38310;52.796;6.942;2023-07-20T13:29:41;1.35;;;0.90;;
52380;SDS011;38310;52.796;6.942;2023-07-20T13:32:07;2.03;;;0.90;;
52380;SDS011;38310;52.796;6.942;2023-07-20T13:34:33;2.97;;;0.90;;
52380;SDS011;38310;52.796;6.942;2023-07-20T13:36:59;2.45;;;0.90;;
52380;SDS011;38310;52.796;6.942;2023-07-20T13:39:25;2.15;;;1.20;;
52380;SDS011;38310;52.796;6.942;2023-07-20T13:41:54;1.88;;;1.00;;
52380;SDS011;38310;52.796;6.942;2023-07-20T13:44:20;3.70;;;1.08;;
52380;SDS011;38310;52.796;6.942;2023-07-20T13:46:46;1.73;;;0.93;;
52380;SDS011;38310;52.796;6.942;2023-07-20T13:49:15;4.13;;;1.17;;
52380;SDS011;38310;52.796;6.942;2023-07-20T13:51:41;1.55;;;1.10;;
52380;SDS011;38310;52.796;6.942;2023-07-20T13:54:07;1.77;;;0.75;;
52380;SDS011;38310;52.796;6.942;2023-07-20T13:56:33;2.30;;;0.90;;
52380;SDS011;38310;52.796;6.942;2023-07-20T13:58:59;1.77;;;0.90;;
52380;SDS011;38310;52.796;6.942;2023-07-20T14:01:26;1.85;;;1.30;;
52380;SDS011;38310;52.796;6.942;2023-07-20T14:03:53;6.28;;;1.35;;
52380;SDS011;38310;52.796;6.942;2023-07-20T14:06:19;2.72;;;1.02;;
52380;SDS011;38310;52.796;6.942;2023-07-20T14:08:45;2.67;;;1.25;;
52380;SDS011;38310;52.796;6.942;2023-07-20T14:11:15;2.17;;;1.02;;
52380;SDS011;38310;52.796;6.942;2023-07-20T14:13:41;5.60;;;1.10;;
52380;SDS011;38310;52.796;6.942;2023-07-20T14:16:07;3.33;;;1.20;;
52380;SDS011;38310;52.796;6.942;2023-07-20T14:18:33;2.83;;;1.13;;
52380;SDS011;38310;52.796;6.942;2023-07-20T14:20:59;5.63;;;1.00;;
52380;SDS011;38310;52.796;6.942;2023-07-20T14:23:27;3.15;;;1.33;;
52380;SDS011;38310;52.796;6.942;2023-07-20T14:25:53;4.22;;;1.25;;
52380;SDS011;38310;52.796;6.942;2023-07-20T14:28:18;3.08;;;1.30;;
52380;SDS011;38310;52.796;6.942;2023-07-20T14:30:45;3.00;;;1.30;;
52380;SDS011;38310;52.796;6.942;2023-07-20T14:33:11;3.08;;;1.23;;
52380;SDS011;38310;52.796;6.942;2023-07-20T14:35:36;4.88;;;1.42;;
52380;SDS011;38310;52.796;6.942;2023-07-20T14:38:02;3.10;;;1.50;;
52380;SDS011;38310;52.796;6.942;2023-07-20T14:40:28;5.25;;;1.30;;
52380;SDS011;38310;52.796;6.942;2023-07-20T14:42:58;3.42;;;1.40;;
52380;SDS011;38310;52.796;6.942;2023-07-20T14:45:26;2.95;;;1.40;;
52380;SDS011;38310;52.796;6.942;2023-07-20T14:47:52;2.58;;;1.30;;
52380;SDS011;38310;52.796;6.942;2023-07-20T14:50:21;4.70;;;1.52;;
52380;SDS011;38310;52.796;6.942;2023-07-20T14:52:47;2.85;;;1.30;;
52380;SDS011;38310;52.796;6.942;2023-07-20T14:55:13;4.03;;;1.50;;
52380;SDS011;38310;52.796;6.942;2023-07-20T14:57:39;4.32;;;1.40;;
52380;SDS011;38310;52.796;6.942;2023-07-20T15:00:05;2.65;;;1.38;;
52380;SDS011;38310;52.796;6.942;2023-07-20T15:02:38;2.60;;;1.30;;
52380;SDS011;38310;52.796;6.942;2023-07-20T15:05:09;3.13;;;1.48;;
52380;SDS011;38310;52.796;6.942;2023-07-20T15:07:36;3.65;;;1.40;;